createdAt,value
2023-05-14T00:00:58.050Z,82.87
2023-05-14T00:01:58.070Z,82.76
2023-05-14T00:02:58.183Z,81.95
2023-05-14T00:03:58.171Z,82.15
2023-05-14T00:04:57.985Z,82.66
2023-05-14T00:05:58.002Z,83.78
2023-05-14T00:06:58.005Z,83.27
2023-05-14T00:07:57.973Z,82.76
2023-05-14T00:08:57.928Z,83.78
2023-05-14T00:09:57.940Z,82.66
2023-05-14T00:10:57.940Z,83.58
2023-05-14T00:11:57.923Z,82.66
2023-05-14T00:12:57.914Z,82.87
2023-05-14T00:13:57.904Z,82.26
2023-05-14T00:14:57.871Z,82.87
2023-05-14T00:15:57.948Z,83.07
2023-05-14T00:16:57.847Z,83.48
2023-05-14T00:17:57.910Z,82.46
2023-05-14T00:18:57.959Z,83.89
2023-05-14T00:19:57.834Z,82.87
2023-05-14T00:20:57.813Z,83.07
2023-05-14T00:21:57.810Z,84.80
2023-05-14T00:22:57.782Z,84.74
2023-05-14T00:23:57.785Z,84.43
2023-05-14T00:24:57.773Z,84.43
2023-05-14T00:25:57.771Z,84.03
2023-05-14T00:26:57.741Z,84.64
2023-05-14T00:27:57.752Z,84.33
2023-05-14T00:28:57.718Z,83.92
2023-05-14T00:29:57.722Z,84.33
2023-05-14T00:30:57.741Z,84.33
2023-05-14T00:31:57.711Z,85.05
2023-05-14T00:32:57.697Z,85.14
2023-05-14T00:33:57.683Z,85.05
2023-05-14T00:34:57.672Z,85.05
2023-05-14T00:35:57.718Z,85.75
2023-05-14T00:36:57.640Z,86.27
2023-05-14T00:37:57.666Z,86.47
2023-05-14T00:38:57.623Z,86.16
2023-05-14T00:39:57.635Z,86.47
2023-05-14T00:40:57.602Z,84.64
2023-05-14T00:41:57.620Z,84.64
2023-05-14T00:42:57.579Z,86.06
2023-05-14T00:43:57.583Z,85.45
2023-05-14T00:44:57.588Z,85.75
2023-05-14T00:45:57.561Z,84.33
2023-05-14T00:46:57.556Z,84.12
2023-05-14T00:47:57.574Z,85.66
2023-05-14T00:48:57.550Z,86.27
2023-05-14T00:49:57.501Z,85.66
2023-05-14T00:50:57.507Z,83.86
2023-05-14T00:51:57.491Z,84.94
2023-05-14T00:52:57.458Z,85.90
2023-05-14T00:53:57.463Z,84.43
2023-05-14T00:54:57.449Z,84.78
2023-05-14T00:55:57.456Z,84.37
2023-05-14T00:56:57.425Z,85.19
2023-05-14T00:57:57.443Z,85.69
2023-05-14T00:58:57.400Z,87.53
2023-05-14T00:59:57.409Z,85.80
2023-05-14T01:00:57.448Z,85.28
2023-05-14T01:01:57.390Z,85.69
2023-05-14T01:02:57.408Z,85.90
2023-05-14T01:03:57.641Z,85.22
2023-05-14T01:04:57.332Z,86.15
2023-05-14T01:05:57.386Z,86.76
2023-05-14T01:06:57.308Z,87.37
2023-05-14T01:07:57.308Z,86.96
2023-05-14T01:08:57.295Z,85.63
2023-05-14T01:09:57.296Z,85.63
2023-05-14T01:10:57.269Z,87.06
2023-05-14T01:11:57.317Z,87.57
2023-05-14T01:12:57.268Z,86.65
2023-05-14T01:13:57.247Z,85.63
2023-05-14T01:14:57.269Z,86.04
2023-05-14T01:15:57.240Z,87.37
2023-05-14T01:16:57.278Z,86.24
2023-05-14T01:17:57.223Z,87.77
2023-05-14T01:18:57.201Z,86.04
2023-05-14T01:19:57.208Z,86.24
2023-05-14T01:20:57.184Z,85.94
2023-05-14T01:21:57.219Z,85.53
2023-05-14T01:22:57.161Z,86.45
2023-05-14T01:23:57.132Z,86.04
2023-05-14T01:24:57.134Z,86.24
2023-05-14T01:25:57.164Z,86.76
2023-05-14T01:26:57.130Z,85.33
2023-05-14T01:27:57.089Z,84.82
2023-05-14T01:28:57.086Z,85.13
2023-05-14T01:29:57.072Z,86.35
2023-05-14T06:00:55.209Z,85.14
2023-05-14T06:01:56.190Z,84.94
2023-05-14T06:02:57.939Z,84.64
2023-05-14T06:03:56.153Z,84.74
2023-05-14T06:04:56.198Z,83.21
2023-05-14T06:05:56.144Z,84.23
2023-05-14T06:06:56.142Z,85.72
2023-05-14T06:07:56.171Z,84.19
2023-05-14T06:08:56.176Z,82.97
2023-05-14T06:09:56.093Z,82.87
2023-05-14T06:10:56.106Z,83.48
2023-05-14T06:11:56.077Z,84.29
2023-05-14T06:12:56.089Z,82.97
2023-05-14T06:13:56.103Z,82.87
2023-05-14T06:14:56.089Z,82.87
2023-05-14T06:15:56.021Z,81.99
2023-05-14T06:16:56.076Z,85.00
2023-05-14T06:17:56.057Z,83.89
2023-05-14T06:18:56.044Z,84.59
2023-05-14T06:19:56.032Z,82.56
2023-05-14T06:20:56.034Z,83.48
2023-05-14T06:21:55.982Z,83.98
2023-05-14T06:22:55.981Z,83.78
2023-05-14T06:23:55.933Z,83.48
2023-05-14T06:24:55.941Z,83.17
2023-05-14T06:25:55.915Z,81.74
2023-05-14T06:26:55.958Z,82.21
2023-05-14T06:27:55.897Z,83.13
2023-05-14T06:28:55.894Z,82.82
2023-05-14T06:29:55.884Z,82.21
2023-05-14T06:30:55.900Z,82.32
2023-05-14T06:31:55.881Z,82.73
2023-05-14T06:32:55.901Z,82.79
2023-05-14T06:33:55.837Z,82.99
2023-05-14T06:34:55.833Z,82.07
2023-05-14T06:35:55.833Z,82.59
2023-05-14T06:36:55.821Z,84.31
2023-05-14T06:37:55.792Z,81.87
2023-05-14T06:38:55.805Z,81.06
2023-05-14T06:39:57.734Z,81.98
2023-05-14T06:40:55.768Z,84.11
2023-05-14T06:41:55.755Z,81.26
2023-05-14T06:42:55.752Z,84.72
2023-05-14T06:43:55.735Z,82.89
2023-05-14T06:44:55.771Z,81.46
2023-05-14T06:45:55.739Z,83.29
2023-05-14T06:46:55.684Z,80.55
2023-05-14T06:47:55.784Z,80.15
2023-05-14T06:48:57.969Z,81.46
2023-05-14T06:49:55.683Z,79.43
2023-05-14T06:50:55.667Z,84.58
2023-05-14T06:51:55.651Z,84.07
2023-05-14T06:52:55.629Z,82.14
2023-05-14T06:53:55.641Z,80.21
2023-05-14T06:54:55.586Z,79.70
2023-05-14T06:55:55.616Z,82.95
2023-05-14T06:56:55.600Z,82.75
2023-05-14T06:57:55.593Z,80.62
2023-05-14T06:58:55.562Z,81.12
2023-05-14T06:59:55.550Z,82.14
2023-05-14T07:00:55.532Z,83.67
2023-05-14T07:01:55.648Z,81.63
2023-05-14T07:02:55.566Z,81.43
2023-05-14T07:03:55.562Z,81.02
2023-05-14T07:04:55.492Z,82.75
2023-05-14T07:05:55.553Z,82.04
2023-05-14T07:06:55.465Z,82.75
2023-05-14T07:07:55.486Z,80.21
2023-05-14T07:08:55.446Z,82.34
2023-05-14T07:09:55.460Z,80.82
2023-05-14T07:10:55.423Z,81.02
2023-05-14T07:11:55.439Z,80.82
2023-05-14T07:12:55.399Z,82.81
2023-05-14T07:13:55.459Z,81.19
2023-05-14T07:14:55.401Z,83.32
2023-05-14T07:15:55.390Z,80.88
2023-05-14T07:16:55.454Z,83.01
2023-05-14T07:17:55.477Z,80.58
2023-05-14T07:18:55.434Z,79.46
2023-05-14T07:19:55.412Z,79.05
2023-05-14T07:20:55.336Z,82.10
2023-05-14T07:21:55.318Z,80.68
2023-05-14T07:22:55.302Z,80.68
2023-05-14T07:23:55.302Z,80.58
2023-05-14T07:24:55.273Z,82.10
2023-05-14T07:25:55.310Z,78.75
2023-05-14T07:26:55.308Z,79.16
2023-05-14T07:27:55.253Z,77.22
2023-05-14T07:28:55.223Z,78.44
2023-05-14T07:29:55.240Z,82.31
2023-05-14T07:30:55.273Z,80.68
2023-05-14T07:31:55.205Z,82.71
2023-05-14T07:32:55.533Z,78.95
2023-05-14T07:33:55.177Z,80.27
2023-05-14T07:34:55.155Z,81.90
2023-05-14T07:35:55.172Z,82.61
2023-05-14T07:36:55.149Z,81.39
2023-05-14T07:37:55.153Z,80.17
2023-05-14T07:38:55.117Z,78.30
2023-05-14T07:39:55.138Z,79.72
2023-05-14T07:40:55.094Z,78.71
2023-05-14T07:41:55.109Z,78.20
2023-05-14T07:42:55.089Z,78.61
2023-05-14T07:43:55.105Z,79.93
2023-05-14T07:44:55.051Z,80.64
2023-05-14T07:45:55.089Z,79.42
2023-05-14T07:46:55.070Z,79.63
2023-05-14T07:47:55.182Z,79.83
2023-05-14T07:48:55.012Z,81.01
2023-05-14T07:49:55.026Z,78.06
2023-05-14T07:50:54.992Z,78.10
2023-05-14T07:51:54.979Z,79.22
2023-05-14T07:52:55.037Z,78.06
2023-05-14T07:53:54.962Z,79.69
2023-05-14T07:54:54.958Z,80.30
2023-05-14T07:55:54.946Z,78.98
2023-05-14T07:56:54.940Z,78.57
2023-05-14T07:57:54.921Z,78.67
2023-05-14T07:58:54.943Z,80.40
2023-05-14T07:59:54.921Z,78.06
2023-05-14T08:00:54.877Z,77.45
2023-05-14T08:01:54.961Z,80.71
2023-05-14T08:02:55.084Z,79.49
2023-05-14T08:03:55.005Z,78.67
2023-05-14T08:04:54.829Z,78.84
2023-05-14T08:05:54.875Z,80.26
2023-05-14T08:06:54.811Z,80.57
2023-05-14T08:07:54.816Z,76.51
2023-05-14T08:08:54.810Z,77.83
2023-05-14T08:09:54.818Z,80.97
2023-05-14T08:10:54.807Z,78.74
2023-05-14T08:11:54.781Z,79.04
2023-05-14T08:12:54.776Z,78.44
2023-05-14T08:13:54.749Z,78.64
2023-05-14T08:14:54.729Z,79.35
2023-05-14T08:15:54.789Z,78.50
2023-05-14T08:16:54.754Z,77.08
2023-05-14T08:17:54.861Z,77.69
2023-05-14T08:18:54.725Z,77.59
2023-05-14T08:19:54.682Z,78.60
2023-05-14T08:20:54.694Z,77.28
2023-05-14T08:21:54.682Z,78.60
2023-05-14T08:22:54.635Z,76.17
2023-05-14T08:23:54.651Z,75.25
2023-05-14T08:24:54.621Z,78.19
2023-05-14T08:25:54.617Z,78.16
2023-05-14T08:26:54.613Z,76.13
2023-05-14T08:27:54.615Z,77.65
2023-05-14T08:28:54.583Z,75.73
2023-05-14T08:29:54.579Z,75.42
2023-05-14T08:30:54.668Z,73.49
2023-05-14T08:31:54.565Z,76.23
2023-05-14T08:32:54.968Z,75.73
2023-05-14T08:33:54.566Z,75.52
2023-05-14T08:34:54.506Z,75.18
2023-05-14T08:35:54.522Z,75.89
2023-05-14T08:36:54.509Z,75.59
2023-05-14T08:37:54.655Z,77.01
2023-05-14T08:38:54.471Z,75.89
2023-05-14T08:39:54.483Z,75.59
2023-05-14T08:40:54.456Z,73.66
2023-05-14T08:41:54.469Z,74.44
2023-05-14T08:42:54.447Z,77.78
2023-05-14T08:43:54.432Z,75.65
2023-05-14T08:44:54.401Z,76.93
2023-05-14T08:45:54.399Z,71.67
2023-05-14T08:46:54.381Z,74.71
2023-05-14T08:47:54.519Z,73.90
2023-05-14T08:48:54.465Z,74.71
2023-05-14T08:49:54.368Z,74.71
2023-05-14T08:50:54.347Z,75.79
2023-05-14T08:51:54.336Z,75.99
2023-05-14T08:52:54.316Z,73.05
2023-05-14T08:53:54.351Z,72.44
2023-05-14T08:54:54.300Z,75.48
2023-05-14T08:55:54.287Z,71.64
2023-05-14T08:56:54.290Z,73.63
2023-05-14T08:57:54.295Z,74.54
2023-05-14T08:58:54.237Z,73.72
2023-05-14T08:59:54.278Z,75.85
2023-05-14T09:00:54.233Z,73.22
2023-05-14T09:01:54.257Z,75.34
2023-05-14T09:02:54.238Z,71.40
2023-05-14T09:03:54.222Z,74.84
2023-05-14T09:04:54.188Z,74.54
2023-05-14T09:05:54.225Z,73.02
2023-05-14T09:06:54.165Z,73.32
2023-05-14T09:07:54.160Z,73.93
2023-05-14T09:08:54.141Z,73.63
2023-05-14T09:09:54.177Z,74.03
2023-05-14T09:10:54.151Z,73.83
2023-05-14T09:11:54.154Z,75.41
2023-05-14T09:12:54.098Z,72.17
2023-05-14T09:13:54.116Z,74.70
2023-05-14T09:14:54.077Z,75.10
2023-05-14T09:15:54.077Z,76.42
2023-05-14T09:16:54.096Z,74.50
2023-05-14T09:17:54.178Z,73.49
2023-05-14T09:18:54.038Z,71.97
2023-05-14T09:19:54.035Z,74.30
2023-05-14T09:20:54.006Z,73.90
2023-05-14T09:21:54.018Z,73.90
2023-05-14T09:22:53.982Z,72.88
2023-05-14T09:23:54.023Z,73.19
2023-05-14T09:24:53.970Z,74.40
2023-05-14T09:25:53.964Z,72.17
2023-05-14T09:26:53.953Z,71.87
2023-05-14T09:27:53.942Z,74.10
2023-05-14T09:28:53.917Z,70.86
2023-05-14T09:29:53.954Z,71.47
2023-05-14T09:30:53.910Z,71.57
2023-05-14T09:31:53.960Z,70.86
2023-05-14T09:32:53.964Z,72.04
2023-05-14T09:33:53.901Z,70.42
2023-05-14T09:34:53.860Z,70.02
2023-05-14T09:35:53.858Z,72.34
2023-05-14T09:36:53.822Z,70.93
2023-05-14T09:37:53.833Z,69.71
2023-05-14T09:38:53.805Z,69.38
2023-05-14T09:39:53.812Z,70.09
2023-05-14T09:40:53.834Z,69.28
2023-05-14T09:41:53.797Z,66.86
2023-05-14T09:42:53.753Z,69.68
2023-05-14T09:43:53.768Z,70.49
2023-05-14T09:44:53.759Z,68.47
2023-05-14T09:45:53.746Z,67.33
2023-05-14T09:46:53.833Z,68.84
2023-05-14T09:47:53.826Z,67.73
2023-05-14T09:48:53.701Z,67.53
2023-05-14T09:49:53.702Z,69.55
2023-05-14T09:50:53.671Z,67.93
2023-05-14T09:51:53.687Z,68.84
2023-05-14T09:52:53.668Z,66.69
2023-05-14T09:53:53.668Z,64.27
2023-05-14T09:54:53.640Z,67.30
2023-05-14T09:55:53.638Z,65.38
2023-05-14T09:56:55.630Z,65.99
2023-05-14T09:57:53.643Z,66.39
2023-05-14T09:58:53.579Z,67.80
2023-05-14T09:59:53.589Z,67.30
2023-05-14T10:00:53.577Z,66.29
2023-05-14T10:01:53.560Z,67.77
2023-05-14T10:02:53.591Z,65.85
2023-05-14T10:03:53.602Z,65.35
2023-05-14T10:04:53.553Z,65.55
2023-05-14T10:05:53.531Z,65.15
2023-05-14T10:06:53.497Z,65.55
2023-05-14T10:07:53.500Z,66.05
2023-05-14T10:08:53.474Z,66.25
2023-05-14T10:09:53.500Z,62.73
2023-05-14T10:10:53.452Z,63.53
2023-05-14T10:11:53.470Z,65.35
2023-05-14T10:12:53.488Z,65.05
2023-05-14T10:13:53.462Z,65.55
2023-05-14T10:14:53.418Z,62.83
2023-05-14T10:15:53.456Z,62.93
2023-05-14T10:16:53.503Z,66.36
2023-05-14T10:17:53.424Z,67.16
2023-05-14T10:18:54.517Z,65.65
2023-05-14T10:19:53.364Z,62.49
2023-05-14T10:20:53.366Z,64.41
2023-05-14T10:21:53.348Z,61.89
2023-05-14T10:22:53.339Z,65.12
2023-05-14T10:23:53.327Z,64.92
2023-05-14T10:24:53.303Z,62.90
2023-05-14T10:25:53.304Z,63.50
2023-05-14T10:26:53.298Z,60.48
2023-05-14T10:27:53.279Z,63.10
2023-05-14T10:28:53.259Z,62.80
2023-05-14T10:29:53.257Z,61.08
2023-05-14T10:30:53.280Z,59.57
2023-05-14T10:31:53.268Z,60.17
2023-05-14T10:32:53.246Z,62.57
2023-05-14T10:33:53.219Z,62.06
2023-05-14T10:34:53.184Z,62.87
2023-05-14T10:35:53.220Z,60.96
2023-05-14T10:36:53.172Z,62.87
2023-05-14T10:37:53.214Z,63.47
2023-05-14T10:38:53.152Z,64.07
2023-05-14T10:39:53.165Z,63.85
2023-05-14T10:40:54.256Z,61.33
2023-05-14T10:41:53.138Z,61.33
2023-05-14T10:42:53.123Z,59.72
2023-05-14T10:43:53.113Z,64.95
2023-05-14T10:44:53.096Z,61.13
2023-05-14T10:45:53.087Z,61.70
2023-05-14T10:46:53.080Z,61.00
2023-05-14T10:47:53.095Z,64.35
2023-05-14T10:48:53.089Z,61.33
2023-05-14T10:49:53.053Z,64.22
2023-05-14T10:50:53.190Z,61.30
2023-05-14T10:51:53.028Z,61.70
2023-05-14T10:52:53.015Z,61.90
2023-05-14T10:53:52.996Z,59.79
2023-05-14T10:54:53.035Z,61.20
2023-05-14T10:55:52.966Z,63.01
2023-05-14T10:56:53.011Z,60.29
2023-05-14T10:57:52.946Z,64.02
2023-05-14T10:58:52.973Z,61.80
2023-05-14T10:59:52.925Z,63.39
2023-05-14T11:00:52.928Z,66.91
2023-05-14T11:01:52.933Z,63.48
2023-05-14T11:02:52.931Z,61.87
2023-05-14T11:03:52.924Z,59.36
2023-05-14T11:04:52.942Z,60.36
2023-05-14T11:05:52.874Z,60.33
2023-05-14T11:06:52.865Z,63.25
2023-05-14T11:07:52.829Z,63.45
2023-05-14T11:08:52.837Z,62.35
2023-05-14T11:09:52.846Z,60.61
2023-05-14T11:10:52.842Z,59.70
2023-05-14T11:11:52.786Z,59.91
2023-05-14T11:12:52.849Z,61.31
2023-05-14T11:13:52.767Z,59.58
2023-05-14T11:14:52.781Z,61.88
2023-05-14T11:15:52.749Z,60.08
2023-05-14T11:16:52.843Z,61.38
2023-05-14T11:17:52.768Z,59.88
2023-05-14T11:18:52.859Z,60.78
2023-05-14T11:19:52.707Z,60.55
2023-05-14T11:20:52.718Z,63.87
2023-05-14T11:21:52.689Z,61.46
2023-05-14T11:22:52.702Z,60.35
2023-05-14T11:23:52.698Z,57.64
2023-05-14T11:24:52.676Z,59.14
2023-05-14T11:25:52.724Z,59.45
2023-05-14T11:26:52.667Z,60.65
2023-05-14T11:27:52.725Z,62.96
2023-05-14T11:28:52.640Z,61.15
2023-05-14T11:29:52.615Z,62.19
2023-05-14T11:30:52.623Z,58.97
2023-05-14T11:31:52.625Z,63.59
2023-05-14T11:32:52.595Z,60.08
2023-05-14T11:33:52.554Z,62.19
2023-05-14T11:34:52.570Z,61.08
2023-05-14T11:35:52.533Z,57.37
2023-05-14T11:36:52.549Z,60.88
2023-05-14T11:37:52.588Z,65.60
2023-05-14T11:38:52.787Z,62.39
2023-05-14T11:39:52.489Z,62.19
2023-05-14T11:40:52.504Z,59.17
2023-05-14T11:41:52.482Z,61.69
2023-05-14T11:42:52.488Z,58.67
2023-05-14T11:43:52.520Z,59.85
2023-05-14T11:44:52.453Z,59.05
2023-05-14T11:45:52.546Z,60.75
2023-05-14T11:46:52.429Z,58.11
2023-05-14T11:47:52.525Z,57.61
2023-05-14T11:48:52.400Z,58.49
2023-05-14T11:49:52.403Z,61.50
2023-05-14T11:50:52.419Z,61.17
2023-05-14T11:51:52.368Z,62.77
2023-05-14T11:52:52.358Z,60.86
2023-05-14T11:53:52.365Z,54.25
2023-05-14T11:54:52.378Z,58.03
2023-05-14T11:55:52.329Z,56.33
2023-05-14T11:56:52.324Z,55.02
2023-05-14T11:57:52.292Z,57.73
2023-05-14T11:58:52.297Z,60.53
2023-05-14T11:59:52.277Z,56.52
2023-05-14T12:00:52.292Z,59.33
2023-05-14T12:01:52.243Z,59.23
2023-05-14T12:02:52.311Z,61.44
2023-05-14T12:03:52.417Z,56.13
2023-05-14T12:04:52.364Z,56.73
2023-05-14T12:05:52.198Z,55.22
2023-05-14T12:06:52.245Z,58.13
2023-05-14T12:07:52.182Z,58.23
2023-05-14T12:08:52.197Z,56.13
2023-05-14T12:09:52.159Z,57.40
2023-05-14T12:10:52.184Z,57.80
2023-05-14T12:11:52.140Z,56.33
2023-05-14T12:12:52.127Z,55.73
2023-05-14T12:13:52.120Z,56.50
2023-05-14T12:14:52.123Z,58.03
2023-05-14T12:15:52.135Z,57.73
2023-05-14T12:16:52.144Z,56.33
2023-05-14T12:17:52.242Z,56.83
2023-05-14T12:18:52.151Z,59.41
2023-05-14T12:19:52.065Z,60.91
2023-05-14T12:20:52.094Z,55.90
2023-05-14T12:21:52.032Z,56.70
2023-05-14T12:22:52.049Z,57.60
2023-05-14T12:23:52.005Z,58.91
2023-05-14T12:24:52.017Z,57.80
2023-05-14T12:25:51.977Z,59.00
2023-05-14T12:26:51.989Z,57.70
2023-05-14T12:27:51.958Z,57.00
2023-05-14T12:28:51.975Z,58.11
2023-05-14T12:29:51.936Z,59.03
2023-05-14T12:30:51.949Z,61.64
2023-05-14T12:31:51.968Z,59.44
2023-05-14T12:32:52.219Z,56.33
2023-05-14T12:33:51.908Z,57.33
2023-05-14T12:34:51.914Z,58.33
2023-05-14T12:35:51.872Z,58.23
2023-05-14T12:36:51.891Z,58.73
2023-05-14T12:37:51.860Z,58.03
2023-05-14T12:38:51.861Z,55.32
2023-05-14T12:39:51.869Z,54.32
2023-05-14T12:40:51.846Z,54.10
2023-05-14T12:41:51.811Z,54.00
2023-05-14T12:42:51.807Z,53.37
2023-05-14T12:43:51.791Z,53.57
2023-05-14T12:44:51.792Z,52.24
2023-05-14T12:45:51.799Z,54.35
2023-05-14T12:46:51.842Z,53.72
2023-05-14T12:47:51.783Z,51.72
2023-05-14T12:48:53.322Z,53.52
2023-05-14T12:49:51.731Z,53.89
2023-05-14T12:50:51.732Z,53.99
2023-05-14T12:51:59.597Z,52.77
2023-05-14T12:52:51.719Z,53.47
2023-05-14T12:53:51.678Z,52.64
2023-05-14T12:54:51.682Z,54.24
2023-05-14T12:55:51.675Z,53.34
2023-05-14T12:56:51.685Z,50.22
2023-05-14T12:57:51.659Z,49.72
2023-05-14T12:58:51.644Z,53.09
2023-05-14T12:59:51.611Z,49.30
2023-05-14T13:00:51.735Z,50.27
2023-05-14T13:01:51.593Z,51.67
2023-05-14T13:02:51.646Z,51.17
2023-05-14T13:03:51.700Z,48.97
2023-05-14T13:04:51.575Z,47.98
2023-05-14T13:05:51.548Z,48.85
2023-05-14T13:06:51.559Z,48.65
2023-05-14T13:07:51.530Z,46.96
2023-05-14T13:08:51.551Z,50.43
2023-05-14T13:09:51.524Z,54.31
2023-05-14T13:10:51.513Z,49.83
2023-05-14T13:11:51.491Z,46.24
2023-05-14T13:12:51.485Z,49.10
2023-05-14T13:13:51.462Z,46.72
2023-05-14T13:14:51.471Z,52.00
2023-05-14T13:15:51.492Z,51.89
2023-05-14T13:16:51.455Z,53.09
2023-05-14T13:17:51.466Z,49.10
2023-05-14T13:18:51.459Z,52.39
2023-05-14T13:19:51.422Z,50.10
2023-05-14T13:20:51.404Z,50.80
2023-05-14T13:21:51.390Z,50.73
2023-05-14T13:22:51.397Z,51.62
2023-05-14T13:23:51.360Z,49.83
2023-05-14T13:24:51.370Z,49.53
2023-05-14T13:25:51.340Z,46.72
2023-05-14T13:26:51.344Z,49.90
2023-05-14T13:27:51.315Z,50.00
2023-05-14T13:28:51.350Z,51.47
2023-05-14T13:29:51.304Z,47.79
2023-05-14T13:30:51.315Z,45.90
2023-05-14T13:31:51.303Z,48.79
2023-05-14T13:32:51.374Z,44.90
2023-05-14T13:33:51.249Z,48.98
2023-05-14T13:34:51.291Z,47.47
2023-05-14T13:35:51.232Z,51.27
2023-05-14T13:36:51.234Z,54.06
2023-05-14T13:37:51.236Z,47.69
2023-05-14T13:38:51.205Z,45.79
2023-05-14T13:39:51.633Z,46.59
2023-05-14T13:40:51.219Z,44.50
2023-05-14T13:41:51.209Z,51.35
2023-05-14T13:42:51.173Z,48.66
2023-05-14T13:43:51.202Z,45.78
2023-05-14T13:44:51.157Z,46.65
2023-05-14T13:45:51.147Z,47.14
2023-05-14T13:46:51.281Z,47.02
2023-05-14T13:47:51.696Z,46.72
2023-05-14T13:48:51.120Z,45.73
2023-05-14T13:49:51.090Z,49.80
2023-05-14T13:50:51.082Z,46.92
2023-05-14T13:51:51.056Z,48.52
2023-05-14T13:52:51.078Z,46.92
2023-05-14T13:53:51.037Z,50.10
2023-05-14T13:54:51.049Z,47.64
2023-05-14T13:55:51.014Z,46.84
2023-05-14T13:56:51.028Z,45.95
2023-05-14T13:57:50.991Z,46.25
2023-05-14T13:58:51.040Z,48.54
2023-05-14T13:59:50.974Z,47.92
2023-05-14T14:00:51.015Z,46.42
2023-05-14T14:01:51.004Z,45.06
2023-05-14T14:02:50.990Z,46.03
2023-05-14T14:03:50.934Z,46.23
2023-05-14T14:04:51.018Z,45.83
2023-05-14T14:05:50.938Z,45.23
2023-05-14T14:06:50.915Z,45.01
2023-05-14T14:07:52.942Z,46.41
2023-05-14T14:08:50.898Z,45.39
2023-05-14T14:09:50.901Z,47.08
2023-05-14T14:10:50.876Z,50.13
2023-05-14T14:11:50.873Z,45.56
2023-05-14T14:12:50.857Z,46.86
2023-05-14T14:13:50.822Z,44.97
2023-05-14T14:14:50.846Z,47.35
2023-05-14T14:15:50.892Z,45.76
2023-05-14T14:16:50.796Z,45.34
2023-05-14T14:17:50.851Z,48.82
2023-05-14T14:18:50.849Z,44.45
2023-05-14T14:19:50.766Z,48.52
2023-05-14T14:20:50.760Z,46.34
2023-05-14T14:22:50.749Z,48.52
2023-05-14T14:23:50.730Z,44.06
2023-05-14T14:24:50.734Z,43.66
2023-05-14T14:25:50.689Z,43.16
2023-05-14T14:26:50.696Z,43.96
2023-05-14T14:27:50.707Z,42.77
2023-05-14T14:28:50.700Z,43.84
2023-05-14T14:29:50.656Z,43.44
2023-05-14T14:30:50.653Z,44.90
2023-05-14T14:31:50.671Z,41.02
2023-05-14T14:32:50.783Z,44.96
2023-05-14T14:33:50.626Z,44.27
2023-05-14T14:34:50.634Z,49.12
2023-05-14T14:35:50.597Z,47.53
2023-05-14T14:36:50.597Z,43.16
2023-05-14T14:37:50.612Z,46.89
2023-05-14T14:38:50.572Z,40.86
2023-05-14T14:39:50.573Z,42.82
2023-05-14T14:40:50.552Z,45.96
2023-05-14T14:41:50.562Z,44.97
2023-05-14T14:42:50.561Z,44.06
2023-05-14T14:43:50.528Z,42.68
2023-05-14T14:44:50.518Z,46.93
2023-05-14T14:45:50.547Z,48.73
2023-05-14T14:46:50.486Z,46.88
2023-05-14T14:47:50.492Z,50.63
2023-05-14T14:48:50.478Z,48.95
2023-05-14T14:49:50.454Z,48.55
2023-05-14T14:50:50.450Z,45.96
2023-05-14T14:51:50.462Z,45.49
2023-05-14T14:52:50.427Z,48.95
2023-05-14T14:53:50.408Z,43.51
2023-05-14T14:54:50.421Z,48.26
2023-05-14T14:55:50.383Z,48.43
2023-05-14T14:56:50.412Z,47.05
2023-05-14T14:57:50.367Z,47.72
2023-05-14T14:58:50.372Z,48.21
2023-05-14T14:59:50.346Z,46.44
2023-05-14T15:00:50.371Z,46.53
2023-05-14T15:01:50.429Z,49.10
2023-05-14T15:02:50.408Z,50.19
2023-05-14T15:03:50.332Z,48.85
2023-05-14T15:04:50.314Z,46.70
2023-05-14T15:05:50.284Z,49.49
2023-05-14T15:06:50.286Z,50.11
2023-05-14T15:07:50.275Z,49.79
2023-05-14T15:08:50.300Z,50.16
2023-05-14T15:09:50.251Z,52.29
2023-05-14T15:10:50.235Z,50.29
2023-05-14T15:11:50.243Z,46.04
2023-05-14T15:12:50.215Z,47.44
2023-05-14T15:13:50.229Z,52.12
2023-05-14T15:14:50.269Z,50.90
2023-05-14T15:15:50.193Z,51.00
2023-05-14T15:16:51.194Z,46.89
2023-05-14T15:17:50.223Z,49.35
2023-05-14T15:18:50.174Z,47.84
2023-05-14T15:19:50.168Z,48.80
2023-05-14T15:20:50.178Z,49.25
2023-05-14T15:21:50.131Z,50.66
2023-05-14T15:22:50.121Z,45.73
2023-05-14T15:23:50.113Z,52.81
2023-05-14T15:24:50.153Z,46.67
2023-05-14T15:25:50.107Z,50.04
2023-05-14T15:26:52.056Z,47.78
2023-05-14T15:27:50.071Z,51.28
2023-05-14T15:28:50.048Z,46.12
2023-05-14T15:29:50.049Z,49.14
2023-05-14T15:30:50.025Z,44.37
2023-05-14T15:31:50.098Z,50.85
2023-05-14T15:32:50.099Z,50.45
2023-05-14T15:33:50.007Z,46.58
2023-05-14T15:34:49.974Z,50.35
2023-05-14T15:35:49.983Z,49.46
2023-05-14T15:36:49.967Z,49.16
2023-05-14T15:37:49.981Z,49.19
2023-05-14T15:38:49.955Z,45.61
2023-05-14T15:39:49.961Z,46.31
2023-05-14T15:40:49.926Z,50.18
2023-05-14T15:41:49.958Z,45.14
2023-05-14T15:42:49.886Z,46.92
2023-05-14T15:43:49.915Z,46.23
2023-05-14T15:44:49.888Z,48.02
2023-05-14T15:45:49.907Z,49.11
2023-05-14T15:46:49.981Z,48.04
2023-05-14T15:47:49.961Z,50.63
2023-05-14T15:48:49.837Z,49.55
2023-05-14T15:49:49.851Z,49.18
2023-05-14T15:50:49.997Z,52.76
2023-05-14T15:51:49.808Z,48.31
2023-05-14T15:52:49.828Z,49.93
2023-05-14T15:53:49.796Z,53.04
2023-05-14T15:54:49.793Z,49.35
2023-05-14T15:55:49.770Z,50.57
2023-05-14T15:56:49.754Z,51.77
2023-05-14T15:57:49.751Z,52.09
2023-05-14T15:58:49.735Z,51.20
2023-05-14T15:59:49.735Z,54.09
2023-05-14T16:00:49.752Z,54.71
2023-05-14T16:01:49.747Z,54.91
2023-05-14T16:02:49.730Z,56.51
2023-05-14T16:03:49.746Z,57.84
2023-05-14T16:04:49.753Z,61.26
2023-05-14T16:05:49.667Z,60.36
2023-05-14T16:06:49.666Z,59.97
2023-05-14T16:07:49.659Z,64.09
2023-05-14T16:08:49.618Z,60.10
2023-05-14T16:09:49.610Z,62.29
2023-05-14T16:10:49.597Z,62.29
2023-05-14T16:11:49.602Z,61.12
2023-05-14T16:12:49.595Z,57.50
2023-05-14T16:13:49.570Z,57.69
2023-05-14T16:14:49.549Z,59.79
2023-05-14T16:15:49.550Z,58.00
2023-05-14T16:16:49.591Z,58.99
2023-05-14T16:17:49.626Z,59.59
2023-05-14T16:18:49.623Z,55.49
2023-05-14T16:19:49.503Z,55.89
2023-05-14T16:20:49.485Z,56.46
2023-05-14T16:21:49.541Z,54.60
2023-05-14T16:22:49.471Z,54.99
2023-05-14T16:23:49.487Z,55.89
2023-05-14T16:24:49.466Z,55.79
2023-05-14T16:25:49.448Z,57.19
2023-05-14T16:26:49.422Z,54.10
2023-05-14T16:27:49.429Z,55.69
2023-05-14T16:28:49.407Z,56.09
2023-05-14T16:29:49.419Z,54.99
2023-05-14T16:30:49.470Z,54.10
2023-05-14T16:31:49.577Z,55.69
2023-05-14T16:32:49.441Z,56.57
2023-05-14T16:33:49.348Z,54.17
2023-05-14T16:34:49.332Z,56.16
2023-05-14T16:35:49.334Z,53.99
2023-05-14T16:36:49.345Z,54.49
2023-05-14T16:37:49.320Z,54.69
2023-05-14T16:39:06.164Z,56.09
2023-05-14T16:39:49.391Z,55.40
2023-05-14T16:40:50.116Z,58.99
2023-05-14T16:41:49.276Z,55.40
2023-05-14T16:42:49.498Z,55.89
2023-05-14T16:43:49.254Z,54.99
2023-05-14T16:44:49.220Z,54.10
2023-05-14T16:45:49.282Z,54.69
2023-05-14T16:46:49.207Z,56.39
2023-05-14T16:47:49.250Z,56.59
2023-05-14T16:48:49.176Z,56.39
2023-05-14T16:49:49.181Z,54.69
2023-05-14T16:50:49.944Z,57.19
2023-05-14T16:51:49.155Z,54.69
2023-05-14T16:52:49.127Z,58.39
2023-05-14T16:53:49.139Z,56.92
2023-05-14T16:54:49.111Z,53.42
2023-05-14T16:55:49.143Z,56.52
2023-05-14T16:56:49.104Z,54.62
2023-05-14T16:57:49.095Z,56.52
2023-05-14T16:58:49.082Z,56.42
2023-05-14T16:59:49.066Z,55.12
2023-05-14T17:00:49.047Z,53.62
2023-05-14T17:01:49.167Z,54.22
2023-05-14T17:02:49.122Z,56.12
2023-05-14T17:03:49.021Z,55.42
2023-05-14T17:04:49.082Z,56.62
2023-05-14T17:05:49.015Z,57.12
2023-05-14T17:06:49.264Z,55.92
2023-05-14T17:07:49.067Z,56.42
2023-05-14T17:08:48.949Z,56.22
2023-05-14T17:09:48.959Z,56.95
2023-05-14T17:10:48.957Z,57.15
2023-05-14T17:11:48.930Z,55.87
2023-05-14T17:12:48.904Z,56.48
2023-05-14T17:13:48.936Z,57.28
2023-05-14T17:14:48.907Z,57.98
2023-05-14T17:15:48.930Z,57.48
2023-05-14T17:16:48.856Z,59.70
2023-05-14T17:17:48.878Z,58.61
2023-05-14T17:18:48.903Z,60.61
2023-05-14T17:19:48.883Z,59.41
2023-05-14T17:20:48.820Z,60.51
2023-05-14T17:21:48.841Z,60.51
2023-05-14T17:22:48.798Z,60.41
2023-05-14T17:23:48.803Z,58.61